Time;durP1;ratioP1;P1;durP2;ratioP2;P2;SDS_P1;SDS_P2;PMS_P1;PMS_P2;Temp;Humidity;BMP_temperature;BMP_pressure;BME280_temperature;BME280_humidity;BME280_pressure;Samples;Min_cycle;Max_cycle;Signal;HPM_P1;HPM_P2
2023/04/05 00:00:35;;;;;;;4.40;4.00;;;;;;;;;;5085640;28;20200;-68
2023/04/05 00:03:01;;;;;;;4.93;4.40;;;;;;;;;;5085528;28;20200;-68
2023/04/05 00:05:30;;;;;;;7.22;4.30;;;;;;;;;;5085665;28;20272;-68
2023/04/05 00:07:56;;;;;;;6.45;4.60;;;;;;;;;;5085395;28;20215;-68
2023/04/05 00:10:22;;;;;;;4.53;4.22;;;;;;;;;;5085470;28;20200;-68
2023/04/05 00:12:49;;;;;;;4.95;4.53;;;;;;;;;;5085448;28;20204;-68
2023/04/05 00:15:17;;;;;;;5.13;4.57;;;;;;;;;;5085390;28;20227;-68
2023/04/05 00:17:43;;;;;;;5.07;4.63;;;;;;;;;;5085369;28;20511;-68
2023/04/05 00:20:10;;;;;;;6.95;5.05;;;;;;;;;;5085023;28;20196;-68
2023/04/05 00:22:37;;;;;;;7.30;5.00;;;;;;;;;;5085451;28;20208;-68
2023/04/05 00:25:03;;;;;;;5.47;4.85;;;;;;;;;;5085362;28;20504;-68
2023/04/05 00:27:29;;;;;;;5.35;4.47;;;;;;;;;;5085588;28;20253;-68
2023/04/05 00:29:56;;;;;;;5.97;4.65;;;;;;;;;;5084818;28;20197;-68
2023/04/05 00:32:23;;;;;;;5.25;4.75;;;;;;;;;;5085158;28;20205;-68
2023/04/05 00:34:50;;;;;;;6.30;4.68;;;;;;;;;;5084823;28;20212;-68
2023/04/05 00:37:17;;;;;;;7.28;5.20;;;;;;;;;;5085248;28;20220;-68
2023/04/05 00:39:43;;;;;;;6.07;5.40;;;;;;;;;;5085013;28;20204;-68
2023/04/05 00:42:09;;;;;;;6.15;5.18;;;;;;;;;;5084805;28;20200;-68
2023/04/05 00:44:35;;;;;;;5.93;4.72;;;;;;;;;;5084936;28;20196;-68
2023/04/05 00:47:02;;;;;;;4.72;4.43;;;;;;;;;;5084723;28;20196;-69
2023/04/05 00:49:30;;;;;;;7.93;5.30;;;;;;;;;;5084511;28;20207;-68
2023/04/05 00:51:56;;;;;;;5.55;4.80;;;;;;;;;;5084343;28;20303;-68
2023/04/05 00:54:24;;;;;;;5.45;4.88;;;;;;;;;;5084522;28;20223;-68
2023/04/05 00:56:51;;;;;;;6.18;4.60;;;;;;;;;;5084759;28;20196;-68
2023/04/05 00:59:18;;;;;;;6.28;5.38;;;;;;;;;;5084630;28;20491;-69
2023/04/05 01:01:53;;;;;;;5.35;4.85;;;;;;;;;;5082565;28;20203;-69
2023/04/05 01:04:20;;;;;;;7.03;5.32;;;;;;;;;;5077434;28;20215;-68
2023/04/05 01:06:59;;;;;;;5.05;4.63;;;;;;;;;;5084577;28;20238;-68
2023/04/05 01:09:32;;;;;;;5.25;4.75;;;;;;;;;;5077706;28;20196;-68
2023/04/05 01:12:01;;;;;;;7.32;5.22;;;;;;;;;;5084285;28;20426;-68
2023/04/05 01:14:27;;;;;;;5.38;4.90;;;;;;;;;;5084068;28;20262;-68
2023/04/05 01:16:57;;;;;;;5.80;5.30;;;;;;;;;;5084254;28;20275;-68
2023/04/05 01:19:24;;;;;;;5.80;5.38;;;;;;;;;;5084367;28;20197;-68
2023/04/05 01:22:12;;;;;;;5.25;4.63;;;;;;;;;;5083776;28;20239;-68
2023/04/05 01:24:45;;;;;;;6.05;5.50;;;;;;;;;;5084169;28;20196;-68
2023/04/05 01:27:14;;;;;;;5.50;4.97;;;;;;;;;;5083893;28;20227;-68
2023/04/05 01:29:45;;;;;;;7.18;4.90;;;;;;;;;;5084056;28;20201;-68
2023/04/05 01:32:14;;;;;;;5.55;5.05;;;;;;;;;;5083904;28;20419;-68
2023/04/05 01:34:45;;;;;;;5.57;5.18;;;;;;;;;;5084233;28;20227;-68
2023/04/05 01:37:12;;;;;;;8.75;5.65;;;;;;;;;;5084012;28;20368;-68
2023/04/05 01:39:39;;;;;;;9.20;5.93;;;;;;;;;;5084072;28;20210;-68
2023/04/05 01:42:05;;;;;;;6.70;5.57;;;;;;;;;;5083803;28;20227;-68
2023/04/05 01:44:32;;;;;;;6.07;5.57;;;;;;;;;;5083857;28;20200;-68
2023/04/05 01:46:59;;;;;;;7.35;5.80;;;;;;;;;;5083528;28;20504;-68
2023/04/05 01:49:26;;;;;;;7.20;5.22;;;;;;;;;;5083780;28;20508;-68
2023/04/05 01:51:52;;;;;;;6.28;5.32;;;;;;;;;;5083359;28;20196;-68
2023/04/05 01:54:18;;;;;;;9.38;5.68;;;;;;;;;;5083624;28;20216;-68
2023/04/05 01:56:44;;;;;;;7.78;5.20;;;;;;;;;;5083596;28;20245;-68
2023/04/05 01:59:11;;;;;;;7.63;5.57;;;;;;;;;;5083068;28;20208;-68
2023/04/05 02:01:37;;;;;;;5.82;5.32;;;;;;;;;;5083112;28;20420;-68
2023/04/05 02:04:05;;;;;;;6.07;5.57;;;;;;;;;;5083652;28;20231;-68
2023/04/05 02:06:31;;;;;;;5.93;5.43;;;;;;;;;;5083518;28;20197;-68
2023/04/05 02:08:57;;;;;;;7.15;5.88;;;;;;;;;;5083257;28;20212;-68
2023/04/05 02:11:24;;;;;;;6.93;5.60;;;;;;;;;;5083148;28;20197;-68
2023/04/05 02:13:50;;;;;;;6.18;5.50;;;;;;;;;;5082520;28;20526;-68
2023/04/05 02:16:17;;;;;;;6.43;5.75;;;;;;;;;;5082939;28;20322;-68
2023/04/05 02:18:49;;;;;;;6.75;6.03;;;;;;;;;;5083318;28;20440;-68
2023/04/05 02:21:17;;;;;;;8.05;6.30;;;;;;;;;;5083224;28;20246;-68
2023/04/05 02:23:43;;;;;;;6.95;5.55;;;;;;;;;;5083017;28;20204;-68
2023/04/05 02:26:09;;;;;;;6.78;6.18;;;;;;;;;;5082814;28;20227;-68
2023/04/05 02:28:36;;;;;;;7.82;5.55;;;;;;;;;;5082687;28;20216;-68
2023/04/05 02:31:02;;;;;;;6.53;5.53;;;;;;;;;;5082583;28;20560;-68
2023/04/05 02:33:28;;;;;;;8.00;6.30;;;;;;;;;;5082794;28;20196;-68
2023/04/05 02:35:55;;;;;;;6.05;5.55;;;;;;;;;;5082758;28;20270;-68
2023/04/05 02:38:23;;;;;;;5.65;5.25;;;;;;;;;;5082814;28;20405;-68
2023/04/05 02:40:50;;;;;;;6.13;5.53;;;;;;;;;;5082410;28;20204;-68
2023/04/05 02:43:16;;;;;;;8.20;6.07;;;;;;;;;;5082241;28;20423;-68
2023/04/05 02:45:43;;;;;;;6.57;5.95;;;;;;;;;;5082418;28;20218;-68
2023/04/05 02:48:09;;;;;;;6.30;5.70;;;;;;;;;;5082487;28;20208;-68
2023/04/05 02:50:35;;;;;;;8.43;6.00;;;;;;;;;;5082412;28;20196;-68
2023/04/05 02:53:01;;;;;;;8.75;5.90;;;;;;;;;;5082395;28;20250;-68
2023/04/05 02:55:29;;;;;;;8.93;6.20;;;;;;;;;;5082235;28;20216;-68
2023/04/05 02:57:59;;;;;;;12.23;6.53;;;;;;;;;;5082252;28;20196;-68
2023/04/05 03:00:26;;;;;;;6.85;6.25;;;;;;;;;;5082301;28;20197;-68
2023/04/05 03:02:53;;;;;;;6.72;6.13;;;;;;;;;;5082299;28;20203;-68
2023/04/05 03:05:19;;;;;;;6.63;6.03;;;;;;;;;;5082202;28;20242;-68
2023/04/05 03:07:49;;;;;;;6.68;6.00;;;;;;;;;;5082244;28;20254;-68
2023/04/05 03:10:17;;;;;;;6.85;6.05;;;;;;;;;;5081844;28;20204;-68
2023/04/05 03:12:45;;;;;;;7.68;6.15;;;;;;;;;;5082375;28;20244;-68
2023/04/05 03:15:11;;;;;;;6.93;6.25;;;;;;;;;;5082337;28;20253;-68
2023/04/05 03:17:37;;;;;;;6.72;5.85;;;;;;;;;;5082210;28;20197;-68
2023/04/05 03:20:05;;;;;;;8.05;6.75;;;;;;;;;;5081777;28;20219;-68
2023/04/05 03:22:32;;;;;;;6.97;6.35;;;;;;;;;;5082053;28;20197;-68
2023/04/05 03:24:58;;;;;;;9.23;6.78;;;;;;;;;;5081198;28;20211;-68
2023/04/05 03:27:26;;;;;;;8.30;6.90;;;;;;;;;;5081904;28;20216;-68
2023/04/05 03:29:53;;;;;;;7.22;5.85;;;;;;;;;;5082050;28;20234;-68
2023/04/05 03:32:19;;;;;;;7.32;6.47;;;;;;;;;;5082189;28;20201;-68
2023/04/05 03:34:46;;;;;;;8.30;6.70;;;;;;;;;;5081959;28;20273;-67
2023/04/05 03:37:12;;;;;;;7.60;6.85;;;;;;;;;;5081894;28;20204;-68
2023/04/05 03:39:38;;;;;;;8.18;6.55;;;;;;;;;;5082053;28;20196;-68
2023/04/05 03:42:04;;;;;;;6.50;5.90;;;;;;;;;;5081754;28;20258;-68
2023/04/05 03:44:31;;;;;;;6.75;6.10;;;;;;;;;;5081984;28;20239;-68
2023/04/05 03:46:58;;;;;;;6.60;6.00;;;;;;;;;;5082161;28;20200;-68
2023/04/05 03:49:25;;;;;;;6.93;6.32;;;;;;;;;;5073716;28;20204;-68
2023/04/05 03:51:51;;;;;;;8.45;6.60;;;;;;;;;;5081431;28;20203;-68
2023/04/05 03:54:17;;;;;;;8.15;6.35;;;;;;;;;;5081524;28;20214;-69
2023/04/05 03:56:44;;;;;;;6.55;5.95;;;;;;;;;;5081797;28;20196;-67
2023/04/05 03:59:10;;;;;;;7.75;5.63;;;;;;;;;;5081680;28;20441;-67
2023/04/05 04:01:37;;;;;;;7.32;6.63;;;;;;;;;;5081575;28;20200;-68
2023/04/05 04:04:05;;;;;;;6.82;6.18;;;;;;;;;;5081541;28;20617;-68
2023/04/05 04:06:31;;;;;;;9.25;6.45;;;;;;;;;;5081584;28;20268;-68
2023/04/05 04:08:57;;;;;;;7.55;6.85;;;;;;;;;;5081408;28;20201;-68
2023/04/05 04:11:24;;;;;;;10.75;6.53;;;;;;;;;;5081205;28;20196;-67
2023/04/05 04:13:51;;;;;;;7.88;6.35;;;;;;;;;;5081665;28;20227;-67
2023/04/05 04:16:18;;;;;;;17.60;7.50;;;;;;;;;;5081379;28;20597;-67
2023/04/05 04:18:44;;;;;;;10.30;7.38;;;;;;;;;;5081543;28;20242;-67
2023/04/05 04:21:13;;;;;;;9.80;7.45;;;;;;;;;;5081185;28;20412;-69
2023/04/05 04:23:44;;;;;;;9.18;7.28;;;;;;;;;;5081722;28;20196;-67
2023/04/05 04:26:13;;;;;;;13.88;8.63;;;;;;;;;;5081535;28;20196;-67
2023/04/05 04:28:42;;;;;;;16.80;10.43;;;;;;;;;;5081151;28;20528;-67
2023/04/05 04:31:12;;;;;;;22.15;11.25;;;;;;;;;;5081135;28;20200;-69
2023/04/05 04:33:39;;;;;;;26.52;12.93;;;;;;;;;;5081793;28;20204;-67
2023/04/05 04:36:12;;;;;;;20.75;10.60;;;;;;;;;;5083731;28;20550;-67
2023/04/05 04:38:41;;;;;;;21.00;10.80;;;;;;;;;;5085569;28;20202;-68
2023/04/05 04:41:08;;;;;;;13.90;9.43;;;;;;;;;;5085095;28;20201;-68
2023/04/05 04:43:41;;;;;;;11.10;8.68;;;;;;;;;;5085502;28;20200;-68
2023/04/05 04:46:10;;;;;;;12.45;8.50;;;;;;;;;;5085405;28;20214;-68
2023/04/05 04:48:40;;;;;;;9.07;7.43;;;;;;;;;;5085831;28;20220;-68
2023/04/05 04:51:07;;;;;;;9.90;7.68;;;;;;;;;;5084983;28;20267;-68
2023/04/05 04:53:33;;;;;;;11.57;8.15;;;;;;;;;;5085297;28;20196;-68
2023/04/05 04:56:01;;;;;;;8.23;7.15;;;;;;;;;;5085071;28;20220;-70
2023/04/05 04:58:27;;;;;;;11.57;7.70;;;;;;;;;;5085330;28;20204;-68
2023/04/05 05:00:56;;;;;;;10.40;7.40;;;;;;;;;;5085098;28;20197;-68
2023/04/05 05:03:22;;;;;;;9.85;7.47;;;;;;;;;;5084808;28;20200;-68
2023/04/05 05:05:49;;;;;;;9.00;7.22;;;;;;;;;;5084984;28;20193;-69
2023/04/05 05:08:15;;;;;;;9.52;7.40;;;;;;;;;;5084986;28;20242;-68
2023/04/05 05:10:42;;;;;;;9.50;7.43;;;;;;;;;;5084669;28;20219;-68
2023/04/05 05:13:10;;;;;;;9.77;7.63;;;;;;;;;;5084551;28;20475;-68
2023/04/05 05:15:36;;;;;;;9.00;7.32;;;;;;;;;;5085104;28;20220;-68
2023/04/05 05:18:03;;;;;;;12.95;7.93;;;;;;;;;;5084826;28;20196;-68
2023/04/05 05:20:29;;;;;;;9.57;7.18;;;;;;;;;;5076641;28;20197;-68
2023/04/05 05:22:56;;;;;;;7.88;7.00;;;;;;;;;;5084863;28;20196;-70
2023/04/05 05:25:22;;;;;;;11.60;6.75;;;;;;;;;;5084592;28;20213;-68
2023/04/05 05:27:48;;;;;;;8.63;7.20;;;;;;;;;;5084715;28;20224;-68
2023/04/05 05:30:16;;;;;;;8.88;7.57;;;;;;;;;;5084245;28;20504;-68
2023/04/05 05:32:42;;;;;;;7.75;6.90;;;;;;;;;;5084365;28;20192;-68
2023/04/05 05:35:09;;;;;;;10.57;7.30;;;;;;;;;;5084294;28;20262;-68
2023/04/05 05:37:36;;;;;;;7.25;6.65;;;;;;;;;;5084595;28;20268;-68
2023/04/05 05:40:04;;;;;;;8.15;7.35;;;;;;;;;;5084228;28;20468;-68
2023/04/05 05:42:31;;;;;;;7.88;6.68;;;;;;;;;;5076159;28;20203;-60
2023/04/05 05:44:57;;;;;;;14.88;7.95;;;;;;;;;;5083999;28;20196;-59
2023/04/05 05:47:25;;;;;;;8.82;7.38;;;;;;;;;;5082974;28;20207;-60
2023/04/05 05:49:51;;;;;;;10.32;7.55;;;;;;;;;;5078544;28;20631;-63
2023/04/05 05:52:18;;;;;;;9.15;7.57;;;;;;;;;;5076655;28;20258;-63
2023/04/05 05:54:44;;;;;;;11.25;8.05;;;;;;;;;;5078011;28;20223;-59
2023/04/05 05:57:10;;;;;;;10.80;7.75;;;;;;;;;;5078765;28;20212;-59
2023/04/05 05:59:36;;;;;;;8.77;7.50;;;;;;;;;;5080390;28;20212;-60
2023/04/05 06:02:03;;;;;;;16.60;8.75;;;;;;;;;;5079566;28;20262;-59
2023/04/05 06:04:30;;;;;;;14.32;8.27;;;;;;;;;;5077344;28;20212;-60
2023/04/05 06:06:56;;;;;;;20.48;9.23;;;;;;;;;;5076245;28;20200;-60
2023/04/05 06:09:23;;;;;;;10.75;8.43;;;;;;;;;;5073456;28;20270;-60
2023/04/05 06:11:51;;;;;;;13.75;9.40;;;;;;;;;;5073277;28;20555;-60
2023/04/05 06:14:17;;;;;;;16.13;10.02;;;;;;;;;;5074635;28;20529;-60
2023/04/05 06:16:43;;;;;;;11.88;9.27;;;;;;;;;;5074672;28;20228;-60
2023/04/05 06:19:10;;;;;;;16.10;10.55;;;;;;;;;;5073937;28;20265;-60
2023/04/05 06:21:37;;;;;;;13.88;9.70;;;;;;;;;;5074326;28;20249;-60
2023/04/05 06:24:04;;;;;;;16.08;9.57;;;;;;;;;;5074302;28;20200;-59
2023/04/05 06:26:30;;;;;;;12.75;9.85;;;;;;;;;;5074453;28;20254;-60
2023/04/05 06:28:57;;;;;;;12.77;9.38;;;;;;;;;;5070214;28;20224;-60
2023/04/05 06:31:26;;;;;;;18.42;9.95;;;;;;;;;;5071136;28;20212;-60
2023/04/05 06:33:52;;;;;;;15.35;9.13;;;;;;;;;;5074984;28;20574;-60
2023/04/05 06:36:19;;;;;;;19.30;9.82;;;;;;;;;;5075014;28;20559;-59
2023/04/05 06:38:46;;;;;;;26.02;9.68;;;;;;;;;;5075128;28;20277;-59
2023/04/05 06:41:12;;;;;;;17.10;9.77;;;;;;;;;;5075152;28;20249;-60
2023/04/05 06:43:39;;;;;;;15.90;9.77;;;;;;;;;;5074817;28;20212;-61
2023/04/05 06:46:07;;;;;;;12.25;9.32;;;;;;;;;;5075768;28;20246;-60
2023/04/05 06:48:34;;;;;;;15.07;9.82;;;;;;;;;;5076007;28;20208;-59
2023/04/05 06:51:00;;;;;;;13.65;9.32;;;;;;;;;;5075576;28;20430;-61
2023/04/05 06:53:27;;;;;;;16.40;9.35;;;;;;;;;;5074956;28;20219;-59
2023/04/05 06:55:55;;;;;;;14.10;9.88;;;;;;;;;;5075958;28;20244;-62
2023/04/05 06:58:22;;;;;;;19.05;10.65;;;;;;;;;;5075881;28;20243;-61
2023/04/05 07:00:48;;;;;;;14.00;9.57;;;;;;;;;;5075183;28;20208;-62
2023/04/05 07:03:15;;;;;;;15.13;9.25;;;;;;;;;;5075622;28;20204;-60
2023/04/05 07:05:41;;;;;;;14.73;8.88;;;;;;;;;;5075418;28;20204;-61
2023/04/05 07:08:07;;;;;;;15.25;9.80;;;;;;;;;;5075007;28;20212;-62
2023/04/05 07:10:33;;;;;;;17.00;10.52;;;;;;;;;;5075053;28;20213;-62
2023/04/05 07:13:01;;;;;;;22.40;9.52;;;;;;;;;;5074777;28;20216;-59
2023/04/05 07:15:27;;;;;;;19.92;10.02;;;;;;;;;;5076447;28;20228;-61
2023/04/05 07:17:53;;;;;;;15.10;9.93;;;;;;;;;;5075089;28;20196;-60
2023/04/05 07:20:20;;;;;;;12.52;9.07;;;;;;;;;;5075114;28;20212;-59
2023/04/05 07:22:46;;;;;;;14.02;8.90;;;;;;;;;;5074977;28;20457;-63
2023/04/05 07:25:12;;;;;;;9.63;8.50;;;;;;;;;;5076100;28;20460;-60
2023/04/05 07:27:39;;;;;;;12.23;8.55;;;;;;;;;;5076204;28;20563;-63
2023/04/05 07:30:08;;;;;;;10.00;8.73;;;;;;;;;;5074144;28;20238;-60
2023/04/05 07:32:34;;;;;;;12.20;8.52;;;;;;;;;;5074026;28;20208;-61
2023/04/05 07:35:00;;;;;;;9.32;8.38;;;;;;;;;;5074088;28;20208;-60
2023/04/05 07:37:27;;;;;;;9.30;7.93;;;;;;;;;;5074077;28;20235;-60
2023/04/05 07:39:53;;;;;;;13.50;8.65;;;;;;;;;;5073752;28;20436;-60
2023/04/05 07:42:20;;;;;;;11.52;8.43;;;;;;;;;;5074893;28;20212;-61
2023/04/05 07:44:46;;;;;;;11.68;8.43;;;;;;;;;;5074017;28;20570;-60
2023/04/05 07:47:14;;;;;;;12.30;7.63;;;;;;;;;;5073622;28;20512;-60
2023/04/05 07:49:40;;;;;;;10.52;7.72;;;;;;;;;;5075454;28;20209;-59
2023/04/05 07:52:06;;;;;;;11.45;8.07;;;;;;;;;;5075539;28;20211;-60
2023/04/05 07:54:33;;;;;;;9.38;7.95;;;;;;;;;;5073280;28;20266;-60
2023/04/05 07:56:59;;;;;;;10.05;7.93;;;;;;;;;;5073787;28;21244;-60
2023/04/05 07:59:26;;;;;;;12.48;7.80;;;;;;;;;;5074829;28;20219;-59
2023/04/05 08:01:52;;;;;;;12.85;7.40;;;;;;;;;;5074604;28;20208;-59
2023/04/05 08:04:20;;;;;;;9.10;6.82;;;;;;;;;;5074810;28;20212;-59
2023/04/05 08:06:46;;;;;;;8.77;7.35;;;;;;;;;;5075284;28;20242;-59
2023/04/05 08:09:12;;;;;;;8.73;6.47;;;;;;;;;;5074543;28;20542;-59
2023/04/05 08:11:39;;;;;;;10.40;7.05;;;;;;;;;;5079378;28;20212;-59
2023/04/05 08:14:05;;;;;;;8.43;6.85;;;;;;;;;;5079798;28;20245;-59
2023/04/05 08:16:32;;;;;;;8.30;7.15;;;;;;;;;;5078182;28;20611;-59
2023/04/05 08:18:58;;;;;;;8.05;6.43;;;;;;;;;;5078811;28;20239;-59
2023/04/05 08:21:26;;;;;;;9.05;6.65;;;;;;;;;;5075964;28;20270;-60
2023/04/05 08:23:52;;;;;;;9.85;6.25;;;;;;;;;;5078122;28;20283;-60
2023/04/05 08:26:19;;;;;;;10.65;5.70;;;;;;;;;;5079025;28;20223;-60
2023/04/05 08:28:45;;;;;;;11.50;6.78;;;;;;;;;;5077139;28;20231;-60
2023/04/05 08:31:12;;;;;;;11.55;5.90;;;;;;;;;;5077481;28;20216;-58
2023/04/05 08:33:38;;;;;;;9.43;6.20;;;;;;;;;;5078633;28;20209;-60
2023/04/05 08:36:05;;;;;;;9.82;5.82;;;;;;;;;;5078257;28;20232;-60
2023/04/05 08:38:32;;;;;;;6.88;5.95;;;;;;;;;;5078512;28;20213;-61
2023/04/05 08:41:06;;;;;;;7.78;5.45;;;;;;;;;;5077942;28;20377;-61
2023/04/05 08:43:39;;;;;;;5.85;5.15;;;;;;;;;;5077685;28;20282;-60
2023/04/05 08:46:08;;;;;;;7.45;4.75;;;;;;;;;;5078329;28;20211;-61
2023/04/05 08:48:35;;;;;;;8.02;5.43;;;;;;;;;;5078019;28;20216;-60
2023/04/05 08:51:01;;;;;;;5.53;4.78;;;;;;;;;;5078427;28;20211;-60
2023/04/05 08:53:28;;;;;;;5.85;4.80;;;;;;;;;;5077110;28;20303;-61
2023/04/05 08:55:56;;;;;;;6.60;4.95;;;;;;;;;;5077876;28;20211;-60
2023/04/05 08:58:22;;;;;;;5.07;4.68;;;;;;;;;;5077310;28;20379;-59
2023/04/05 09:00:50;;;;;;;5.03;4.63;;;;;;;;;;5076988;28;20468;-60
2023/04/05 09:03:17;;;;;;;5.18;4.68;;;;;;;;;;5076922;28;20502;-61
2023/04/05 09:05:45;;;;;;;9.73;4.97;;;;;;;;;;5077076;28;20429;-61
2023/04/05 09:08:12;;;;;;;8.18;4.43;;;;;;;;;;5077372;28;20415;-60
2023/04/05 09:10:38;;;;;;;5.38;4.53;;;;;;;;;;5076210;28;20531;-60
2023/04/05 09:13:07;;;;;;;5.85;4.78;;;;;;;;;;5077094;28;20280;-60
2023/04/05 09:15:35;;;;;;;4.97;4.47;;;;;;;;;;5076342;28;20235;-60
2023/04/05 09:18:01;;;;;;;7.45;4.40;;;;;;;;;;5076800;28;20285;-60
2023/04/05 09:20:27;;;;;;;7.43;4.60;;;;;;;;;;5076519;28;20216;-60
2023/04/05 09:22:55;;;;;;;5.20;3.72;;;;;;;;;;5074896;28;20208;-60
2023/04/05 09:25:37;;;;;;;3.95;3.63;;;;;;;;;;5076913;28;20453;-60
2023/04/05 09:28:04;;;;;;;4.72;3.42;;;;;;;;;;5076757;28;20220;-59
2023/04/05 09:30:31;;;;;;;3.60;3.35;;;;;;;;;;5078124;28;20254;-60
2023/04/05 09:32:58;;;;;;;4.13;3.28;;;;;;;;;;5077193;28;20297;-60
2023/04/05 09:35:24;;;;;;;4.10;3.70;;;;;;;;;;5078330;28;20254;-60
2023/04/05 09:37:53;;;;;;;4.00;3.70;;;;;;;;;;5077916;28;20220;-59
2023/04/05 09:40:19;;;;;;;4.35;3.97;;;;;;;;;;5077386;28;20227;-61
2023/04/05 09:42:46;;;;;;;5.93;4.32;;;;;;;;;;5077637;28;20287;-60
2023/04/05 09:45:12;;;;;;;4.28;3.85;;;;;;;;;;5077354;28;20520;-60
2023/04/05 09:47:40;;;;;;;4.00;3.70;;;;;;;;;;5077036;28;20204;-60
2023/04/05 09:50:17;;;;;;;5.80;4.53;;;;;;;;;;5077273;28;20213;-61
2023/04/05 09:52:44;;;;;;;6.28;4.70;;;;;;;;;;5077326;28;20250;-61
2023/04/05 09:55:10;;;;;;;5.22;3.75;;;;;;;;;;5076459;28;20257;-61
2023/04/05 09:57:37;;;;;;;4.95;3.40;;;;;;;;;;5077611;28;20228;-61
2023/04/05 10:00:05;;;;;;;3.80;3.50;;;;;;;;;;5076735;28;20209;-60
2023/04/05 10:02:36;;;;;;;4.13;3.72;;;;;;;;;;5076764;28;20219;-60
2023/04/05 10:05:05;;;;;;;3.80;3.60;;;;;;;;;;5077443;28;20208;-60
2023/04/05 10:07:32;;;;;;;3.92;3.20;;;;;;;;;;5076232;28;20223;-60
2023/04/05 10:09:58;;;;;;;4.72;4.18;;;;;;;;;;5076269;28;20627;-60
2023/04/05 10:12:26;;;;;;;4.38;3.97;;;;;;;;;;5075981;28;20565;-60
2023/04/05 10:14:52;;;;;;;4.50;3.88;;;;;;;;;;5076515;28;20240;-60
2023/04/05 10:17:23;;;;;;;3.70;3.50;;;;;;;;;;5076631;28;20232;-60
2023/04/05 10:19:55;;;;;;;4.75;3.92;;;;;;;;;;5069472;28;20208;-59
2023/04/05 10:22:27;;;;;;;6.85;4.18;;;;;;;;;;5077212;28;20471;-60
2023/04/05 10:24:55;;;;;;;7.18;4.32;;;;;;;;;;5076616;28;20613;-60
2023/04/05 10:27:23;;;;;;;4.95;3.92;;;;;;;;;;5076607;28;20269;-60
2023/04/05 10:29:51;;;;;;;4.32;4.00;;;;;;;;;;5075770;28;20395;-61
2023/04/05 10:32:18;;;;;;;4.55;4.05;;;;;;;;;;5077646;28;20212;-61
2023/04/05 10:34:48;;;;;;;4.80;4.30;;;;;;;;;;5077172;28;20523;-60
2023/04/05 10:37:18;;;;;;;4.32;3.95;;;;;;;;;;5077127;28;20400;-61
2023/04/05 10:39:46;;;;;;;4.53;3.83;;;;;;;;;;5076225;28;20520;-61
2023/04/05 10:42:17;;;;;;;4.18;3.53;;;;;;;;;;5076826;28;20252;-61
2023/04/05 10:44:45;;;;;;;4.18;3.78;;;;;;;;;;5075521;28;20258;-61
2023/04/05 10:47:13;;;;;;;4.18;3.78;;;;;;;;;;5073570;28;20278;-61
2023/04/05 10:49:42;;;;;;;4.55;3.38;;;;;;;;;;5074843;28;20514;-61
2023/04/05 10:52:09;;;;;;;4.70;4.30;;;;;;;;;;5075824;28;20213;-64
2023/04/05 10:54:37;;;;;;;4.70;3.63;;;;;;;;;;5075714;28;20250;-64
2023/04/05 10:57:05;;;;;;;4.05;3.75;;;;;;;;;;5075670;28;20417;-64
2023/04/05 10:59:32;;;;;;;5.93;4.35;;;;;;;;;;5074999;28;20382;-64
2023/04/05 11:01:59;;;;;;;4.18;3.78;;;;;;;;;;5075553;28;20208;-64
2023/04/05 11:04:25;;;;;;;3.90;3.60;;;;;;;;;;5074631;28;20219;-64
2023/04/05 11:07:07;;;;;;;3.97;3.70;;;;;;;;;;5075915;28;20212;-64
2023/04/05 11:09:34;;;;;;;5.70;3.70;;;;;;;;;;5073686;28;20266;-63
2023/04/05 11:12:00;;;;;;;4.47;3.92;;;;;;;;;;5075889;28;20205;-63
2023/04/05 11:14:35;;;;;;;3.78;3.47;;;;;;;;;;5075185;28;20216;-63
2023/04/05 11:17:01;;;;;;;4.40;4.00;;;;;;;;;;5076205;28;20220;-63
2023/04/05 11:19:46;;;;;;;3.88;3.58;;;;;;;;;;5074824;28;20258;-63
2023/04/05 11:22:13;;;;;;;4.13;3.83;;;;;;;;;;5074872;28;20843;-63
2023/04/05 11:24:49;;;;;;;3.72;3.47;;;;;;;;;;5074509;28;20261;-63
2023/04/05 11:27:16;;;;;;;4.35;3.70;;;;;;;;;;5075481;28;20219;-63
2023/04/05 11:29:48;;;;;;;4.30;3.92;;;;;;;;;;5074393;28;20212;-63
2023/04/05 11:32:15;;;;;;;4.82;3.50;;;;;;;;;;5074901;28;20212;-63
2023/04/05 11:34:44;;;;;;;3.92;3.60;;;;;;;;;;5074305;28;20240;-63
2023/04/05 11:37:10;;;;;;;3.90;3.55;;;;;;;;;;5075472;28;20278;-63
2023/04/05 11:39:38;;;;;;;3.60;3.40;;;;;;;;;;5075328;28;20212;-63
2023/04/05 11:42:05;;;;;;;3.90;3.70;;;;;;;;;;5074834;28;20213;-63
2023/04/05 11:44:39;;;;;;;4.30;3.90;;;;;;;;;;5074721;28;20216;-63
2023/04/05 11:47:07;;;;;;;3.95;3.75;;;;;;;;;;5074832;28;20203;-63
2023/04/05 11:49:33;;;;;;;3.78;3.33;;;;;;;;;;5074636;28;20235;-61
2023/04/05 11:52:09;;;;;;;4.25;3.78;;;;;;;;;;5075292;28;20238;-61
2023/04/05 11:54:36;;;;;;;3.53;3.28;;;;;;;;;;5075054;28;20218;-60
2023/04/05 11:57:02;;;;;;;4.05;3.55;;;;;;;;;;5074649;28;20559;-60
2023/04/05 11:59:32;;;;;;;3.90;3.70;;;;;;;;;;5074328;28;20208;-60
2023/04/05 12:01:59;;;;;;;3.53;3.33;;;;;;;;;;5071893;28;20212;-61
2023/04/05 12:04:27;;;;;;;4.03;3.70;;;;;;;;;;5073982;28;20212;-61
2023/04/05 12:07:10;;;;;;;4.20;3.90;;;;;;;;;;5075537;28;20249;-61
2023/04/05 12:09:36;;;;;;;4.13;3.83;;;;;;;;;;5075151;28;20239;-61
2023/04/05 12:12:02;;;;;;;5.20;3.88;;;;;;;;;;5074124;28;20466;-60
2023/04/05 12:14:28;;;;;;;4.30;3.92;;;;;;;;;;5075129;28;20277;-61
2023/04/05 12:16:54;;;;;;;6.57;4.20;;;;;;;;;;5074214;28;20444;-61
2023/04/05 12:19:22;;;;;;;3.83;3.53;;;;;;;;;;5074601;28;20211;-59
2023/04/05 12:21:50;;;;;;;7.18;3.88;;;;;;;;;;5075396;28;20200;-60
2023/04/05 12:24:16;;;;;;;4.05;3.75;;;;;;;;;;5076424;28;20235;-61
2023/04/05 12:26:42;;;;;;;5.03;4.15;;;;;;;;;;5074982;28;20216;-60
2023/04/05 12:29:08;;;;;;;4.60;4.13;;;;;;;;;;5074913;28;20235;-61
2023/04/05 12:31:35;;;;;;;4.63;4.25;;;;;;;;;;5075002;28;20213;-64
2023/04/05 12:34:01;;;;;;;5.15;3.70;;;;;;;;;;5074447;28;20208;-60
2023/04/05 12:36:28;;;;;;;4.38;4.10;;;;;;;;;;5075240;28;20395;-61
2023/04/05 12:38:55;;;;;;;4.47;4.10;;;;;;;;;;5074363;28;20256;-60
2023/04/05 12:41:26;;;;;;;4.63;3.80;;;;;;;;;;5074395;28;20216;-61
2023/04/05 12:43:59;;;;;;;4.80;4.40;;;;;;;;;;5071814;28;20480;-62
2023/04/05 12:46:37;;;;;;;4.25;3.90;;;;;;;;;;5073990;28;20321;-62
2023/04/05 12:49:04;;;;;;;4.25;3.85;;;;;;;;;;5071832;28;20204;-62
2023/04/05 12:51:31;;;;;;;6.15;4.30;;;;;;;;;;5074259;28;20428;-62
2023/04/05 12:54:01;;;;;;;4.43;4.03;;;;;;;;;;5074005;28;20520;-62
2023/04/05 12:56:28;;;;;;;4.55;3.45;;;;;;;;;;5074223;28;20235;-61
2023/04/05 12:58:54;;;;;;;3.67;3.47;;;;;;;;;;5077889;28;20576;-61
2023/04/05 13:01:20;;;;;;;5.30;4.00;;;;;;;;;;5078038;28;20717;-61
2023/04/05 13:03:47;;;;;;;4.20;3.90;;;;;;;;;;5078131;28;20528;-61
2023/04/05 13:06:13;;;;;;;4.00;3.70;;;;;;;;;;5077721;28;20279;-61
2023/04/05 13:08:39;;;;;;;3.67;3.40;;;;;;;;;;5078308;28;20442;-61
2023/04/05 13:11:07;;;;;;;4.70;4.30;;;;;;;;;;5077908;28;20250;-59
2023/04/05 13:13:33;;;;;;;4.65;3.88;;;;;;;;;;5078351;28;20212;-61
2023/04/05 13:16:00;;;;;;;4.30;3.90;;;;;;;;;;5078387;28;20235;-61
2023/04/05 13:18:26;;;;;;;6.20;4.00;;;;;;;;;;5076741;28;20236;-61
2023/04/05 13:20:52;;;;;;;5.10;3.80;;;;;;;;;;5077391;28;20280;-61
2023/04/05 13:23:19;;;;;;;4.93;4.10;;;;;;;;;;5077888;28;20489;-60
2023/04/05 13:25:45;;;;;;;4.03;3.72;;;;;;;;;;5075893;28;20528;-61
2023/04/05 13:28:12;;;;;;;3.95;3.75;;;;;;;;;;5072047;28;20224;-61
2023/04/05 13:30:39;;;;;;;3.97;3.78;;;;;;;;;;5076419;28;20455;-62
2023/04/05 13:33:05;;;;;;;4.35;4.00;;;;;;;;;;5075238;28;20306;-62
2023/04/05 13:35:32;;;;;;;4.50;4.18;;;;;;;;;;5074727;28;20254;-62
2023/04/05 13:37:58;;;;;;;4.53;4.15;;;;;;;;;;5076550;28;20274;-62
2023/04/05 13:40:24;;;;;;;4.63;3.95;;;;;;;;;;5076551;28;20226;-62
2023/04/05 13:42:50;;;;;;;4.78;4.32;;;;;;;;;;5076837;28;20276;-62
2023/04/05 13:45:18;;;;;;;6.03;4.10;;;;;;;;;;5076313;28;20213;-62
2023/04/05 13:47:44;;;;;;;4.00;3.80;;;;;;;;;;5076019;28;20246;-62
2023/04/05 13:50:10;;;;;;;5.70;3.90;;;;;;;;;;5076568;28;20212;-62
2023/04/05 13:52:37;;;;;;;4.88;4.38;;;;;;;;;;5077105;28;20250;-61
2023/04/05 13:55:03;;;;;;;4.47;4.00;;;;;;;;;;5077409;28;20208;-61
2023/04/05 13:57:29;;;;;;;5.20;3.80;;;;;;;;;;5075331;28;20212;-61
2023/04/05 13:59:56;;;;;;;3.83;3.53;;;;;;;;;;5075284;28;20445;-62
2023/04/05 14:02:24;;;;;;;5.75;4.45;;;;;;;;;;5075812;28;20527;-61
2023/04/05 14:04:51;;;;;;;3.88;3.60;;;;;;;;;;5076208;28;20239;-61
2023/04/05 14:07:17;;;;;;;4.20;3.90;;;;;;;;;;5076584;28;20254;-61
2023/04/05 14:09:44;;;;;;;4.40;4.10;;;;;;;;;;5075638;28;20212;-61
2023/04/05 14:12:10;;;;;;;3.78;3.58;;;;;;;;;;5075800;28;20219;-61
2023/04/05 14:14:36;;;;;;;4.57;4.13;;;;;;;;;;5077512;28;20212;-61
2023/04/05 14:17:03;;;;;;;3.35;3.15;;;;;;;;;;5076642;28;20520;-61
2023/04/05 14:19:30;;;;;;;5.10;4.63;;;;;;;;;;5075490;28;20232;-61
2023/04/05 14:21:57;;;;;;;4.05;3.70;;;;;;;;;;5075718;28;20620;-62
2023/04/05 14:24:23;;;;;;;4.32;3.67;;;;;;;;;;5076490;28;20208;-60
2023/04/05 14:26:50;;;;;;;4.35;4.03;;;;;;;;;;5076441;28;20283;-61
2023/04/05 14:29:16;;;;;;;6.63;4.25;;;;;;;;;;5075715;28;20539;-61
2023/04/05 14:31:43;;;;;;;5.15;4.57;;;;;;;;;;5075816;28;20425;-60
2023/04/05 14:34:09;;;;;;;6.22;3.92;;;;;;;;;;5075414;28;20216;-61
2023/04/05 14:36:37;;;;;;;3.90;3.60;;;;;;;;;;5076456;28;20247;-60
2023/04/05 14:39:04;;;;;;;4.80;4.15;;;;;;;;;;5075238;28;20216;-61
2023/04/05 14:41:30;;;;;;;4.13;3.80;;;;;;;;;;5075247;28;20240;-60